sensor_id;sensor_type;location;lat;lon;timestamp;P1;durP1;ratioP1;P2;durP2;ratioP2
14584;SDS011;7379;51.506;11.876;2023-07-16T00:01:16;4.70;;;3.53;;
14584;SDS011;7379;51.506;11.876;2023-07-16T00:03:42;5.45;;;3.42;;
14584;SDS011;7379;51.506;11.876;2023-07-16T00:06:09;4.68;;;3.50;;
14584;SDS011;7379;51.506;11.876;2023-07-16T00:08:37;4.20;;;3.28;;
14584;SDS011;7379;51.506;11.876;2023-07-16T00:11:04;3.60;;;3.30;;
14584;SDS011;7379;51.506;11.876;2023-07-16T00:13:31;3.75;;;2.90;;
14584;SDS011;7379;51.506;11.876;2023-07-16T00:15:57;3.55;;;3.22;;
14584;SDS011;7379;51.506;11.876;2023-07-16T00:18:24;4.07;;;3.67;;
14584;SDS011;7379;51.506;11.876;2023-07-16T00:20:51;4.30;;;2.97;;
14584;SDS011;7379;51.506;11.876;2023-07-16T00:23:18;4.70;;;3.38;;
14584;SDS011;7379;51.506;11.876;2023-07-16T00:25:46;3.42;;;3.08;;
14584;SDS011;7379;51.506;11.876;2023-07-16T00:28:12;3.90;;;3.03;;
14584;SDS011;7379;51.506;11.876;2023-07-16T00:30:39;4.35;;;3.20;;
14584;SDS011;7379;51.506;11.876;2023-07-16T00:33:06;3.42;;;2.92;;
14584;SDS011;7379;51.506;11.876;2023-07-16T00:35:32;4.22;;;3.15;;
14584;SDS011;7379;51.506;11.876;2023-07-16T00:37:59;4.40;;;3.17;;
14584;SDS011;7379;51.506;11.876;2023-07-16T00:40:26;4.70;;;3.10;;
14584;SDS011;7379;51.506;11.876;2023-07-16T00:42:54;4.13;;;3.00;;
14584;SDS011;7379;51.506;11.876;2023-07-16T00:45:21;3.63;;;2.88;;
14584;SDS011;7379;51.506;11.876;2023-07-16T00:47:48;4.53;;;2.85;;
14584;SDS011;7379;51.506;11.876;2023-07-16T00:50:14;4.55;;;2.80;;
14584;SDS011;7379;51.506;11.876;2023-07-16T00:52:41;3.88;;;2.90;;
14584;SDS011;7379;51.506;11.876;2023-07-16T00:55:09;4.68;;;3.00;;
14584;SDS011;7379;51.506;11.876;2023-07-16T00:57:36;3.40;;;2.72;;
14584;SDS011;7379;51.506;11.876;2023-07-16T01:00:05;2.92;;;2.63;;
14584;SDS011;7379;51.506;11.876;2023-07-16T01:02:34;4.40;;;3.08;;
14584;SDS011;7379;51.506;11.876;2023-07-16T01:05:01;3.20;;;2.90;;
14584;SDS011;7379;51.506;11.876;2023-07-16T01:07:29;4.95;;;3.22;;
14584;SDS011;7379;51.506;11.876;2023-07-16T01:09:57;4.20;;;3.10;;
14584;SDS011;7379;51.506;11.876;2023-07-16T01:12:24;3.30;;;2.80;;
14584;SDS011;7379;51.506;11.876;2023-07-16T01:14:52;3.08;;;2.70;;
14584;SDS011;7379;51.506;11.876;2023-07-16T01:17:21;4.15;;;2.83;;
14584;SDS011;7379;51.506;11.876;2023-07-16T01:19:48;3.55;;;2.63;;
14584;SDS011;7379;51.506;11.876;2023-07-16T01:22:28;3.00;;;2.58;;
14584;SDS011;7379;51.506;11.876;2023-07-16T01:25:18;3.25;;;2.70;;
14584;SDS011;7379;51.506;11.876;2023-07-16T01:30:51;3.00;;;2.70;;
14584;SDS011;7379;51.506;11.876;2023-07-16T01:33:21;3.45;;;2.92;;
14584;SDS011;7379;51.506;11.876;2023-07-16T01:35:48;3.65;;;2.70;;
14584;SDS011;7379;51.506;11.876;2023-07-16T01:38:16;3.10;;;2.80;;
14584;SDS011;7379;51.506;11.876;2023-07-16T01:40:46;3.20;;;2.63;;
14584;SDS011;7379;51.506;11.876;2023-07-16T01:43:12;3.78;;;2.60;;
14584;SDS011;7379;51.506;11.876;2023-07-16T01:45:39;3.22;;;2.78;;
14584;SDS011;7379;51.506;11.876;2023-07-16T01:48:11;4.22;;;2.70;;
14584;SDS011;7379;51.506;11.876;2023-07-16T01:50:47;3.58;;;2.95;;
14584;SDS011;7379;51.506;11.876;2023-07-16T01:53:14;3.58;;;2.80;;
14584;SDS011;7379;51.506;11.876;2023-07-16T01:55:40;3.58;;;2.70;;
14584;SDS011;7379;51.506;11.876;2023-07-16T01:58:07;4.00;;;2.75;;
14584;SDS011;7379;51.506;11.876;2023-07-16T02:00:34;3.22;;;2.90;;
14584;SDS011;7379;51.506;11.876;2023-07-16T02:03:02;3.15;;;2.70;;
14584;SDS011;7379;51.506;11.876;2023-07-16T02:05:30;3.60;;;2.78;;
14584;SDS011;7379;51.506;11.876;2023-07-16T02:07:57;3.15;;;2.65;;
14584;SDS011;7379;51.506;11.876;2023-07-16T02:10:23;3.90;;;2.47;;
14584;SDS011;7379;51.506;11.876;2023-07-16T02:12:50;3.60;;;2.50;;
14584;SDS011;7379;51.506;11.876;2023-07-16T02:15:17;4.57;;;2.65;;
14584;SDS011;7379;51.506;11.876;2023-07-16T02:17:44;3.40;;;2.40;;
14584;SDS011;7379;51.506;11.876;2023-07-16T02:20:11;3.33;;;2.53;;
14584;SDS011;7379;51.506;11.876;2023-07-16T02:22:40;3.58;;;2.47;;
14584;SDS011;7379;51.506;11.876;2023-07-16T02:25:06;3.15;;;2.40;;
14584;SDS011;7379;51.506;11.876;2023-07-16T02:27:33;3.42;;;2.70;;
14584;SDS011;7379;51.506;11.876;2023-07-16T02:30:00;2.90;;;2.50;;
14584;SDS011;7379;51.506;11.876;2023-07-16T02:32:27;2.60;;;2.38;;
14584;SDS011;7379;51.506;11.876;2023-07-16T02:34:54;2.83;;;2.53;;
14584;SDS011;7379;51.506;11.876;2023-07-16T02:37:20;2.60;;;2.40;;
14584;SDS011;7379;51.506;11.876;2023-07-16T02:39:48;3.35;;;2.80;;
14584;SDS011;7379;51.506;11.876;2023-07-16T02:42:15;2.97;;;2.33;;
14584;SDS011;7379;51.506;11.876;2023-07-16T02:44:42;2.60;;;2.20;;
14584;SDS011;7379;51.506;11.876;2023-07-16T02:47:10;3.72;;;2.40;;
14584;SDS011;7379;51.506;11.876;2023-07-16T02:49:37;2.75;;;2.40;;
14584;SDS011;7379;51.506;11.876;2023-07-16T02:52:04;2.40;;;2.20;;
14584;SDS011;7379;51.506;11.876;2023-07-16T02:54:32;3.20;;;2.50;;
14584;SDS011;7379;51.506;11.876;2023-07-16T02:57:00;2.80;;;2.30;;
14584;SDS011;7379;51.506;11.876;2023-07-16T02:59:27;2.80;;;2.25;;
14584;SDS011;7379;51.506;11.876;2023-07-16T03:01:54;2.95;;;2.45;;
14584;SDS011;7379;51.506;11.876;2023-07-16T03:04:20;2.90;;;2.60;;
14584;SDS011;7379;51.506;11.876;2023-07-16T03:06:47;3.25;;;2.45;;
14584;SDS011;7379;51.506;11.876;2023-07-16T03:09:14;3.88;;;2.30;;
14584;SDS011;7379;51.506;11.876;2023-07-16T03:11:41;3.45;;;2.40;;
14584;SDS011;7379;51.506;11.876;2023-07-16T03:14:09;2.92;;;2.50;;
14584;SDS011;7379;51.506;11.876;2023-07-16T03:16:35;3.03;;;2.67;;
14584;SDS011;7379;51.506;11.876;2023-07-16T03:19:02;4.38;;;2.33;;
14584;SDS011;7379;51.506;11.876;2023-07-16T03:21:29;7.13;;;2.72;;
14584;SDS011;7379;51.506;11.876;2023-07-16T03:23:55;2.67;;;2.40;;
14584;SDS011;7379;51.506;11.876;2023-07-16T03:26:22;2.97;;;2.30;;
14584;SDS011;7379;51.506;11.876;2023-07-16T03:28:49;2.47;;;2.25;;
14584;SDS011;7379;51.506;11.876;2023-07-16T03:31:17;3.97;;;2.70;;
14584;SDS011;7379;51.506;11.876;2023-07-16T03:33:44;2.55;;;2.28;;
14584;SDS011;7379;51.506;11.876;2023-07-16T03:36:10;3.80;;;2.58;;
14584;SDS011;7379;51.506;11.876;2023-07-16T03:38:37;2.72;;;2.30;;
14584;SDS011;7379;51.506;11.876;2023-07-16T03:41:04;4.45;;;2.58;;
14584;SDS011;7379;51.506;11.876;2023-07-16T03:43:31;2.55;;;2.35;;
14584;SDS011;7379;51.506;11.876;2023-07-16T03:45:57;3.03;;;2.55;;
14584;SDS011;7379;51.506;11.876;2023-07-16T03:48:25;2.50;;;2.30;;
14584;SDS011;7379;51.506;11.876;2023-07-16T03:50:52;3.40;;;2.30;;
14584;SDS011;7379;51.506;11.876;2023-07-16T03:53:19;3.33;;;2.70;;
14584;SDS011;7379;51.506;11.876;2023-07-16T03:55:45;3.25;;;2.50;;
14584;SDS011;7379;51.506;11.876;2023-07-16T03:58:12;2.70;;;2.30;;
14584;SDS011;7379;51.506;11.876;2023-07-16T04:00:40;3.10;;;2.47;;
14584;SDS011;7379;51.506;11.876;2023-07-16T04:03:07;3.67;;;2.63;;
14584;SDS011;7379;51.506;11.876;2023-07-16T04:05:35;2.63;;;2.40;;
14584;SDS011;7379;51.506;11.876;2023-07-16T04:08:02;2.85;;;2.25;;
14584;SDS011;7379;51.506;11.876;2023-07-16T04:10:29;3.78;;;2.45;;
14584;SDS011;7379;51.506;11.876;2023-07-16T04:12:56;2.95;;;2.40;;
14584;SDS011;7379;51.506;11.876;2023-07-16T04:15:23;2.53;;;2.33;;
14584;SDS011;7379;51.506;11.876;2023-07-16T04:17:49;3.10;;;2.25;;
14584;SDS011;7379;51.506;11.876;2023-07-16T04:20:16;3.22;;;2.40;;
14584;SDS011;7379;51.506;11.876;2023-07-16T04:22:44;3.78;;;2.55;;
14584;SDS011;7379;51.506;11.876;2023-07-16T04:25:11;4.85;;;2.63;;
14584;SDS011;7379;51.506;11.876;2023-07-16T04:27:39;3.95;;;2.67;;
14584;SDS011;7379;51.506;11.876;2023-07-16T04:30:08;4.00;;;3.00;;
14584;SDS011;7379;51.506;11.876;2023-07-16T04:32:35;2.60;;;2.30;;
14584;SDS011;7379;51.506;11.876;2023-07-16T04:35:01;4.95;;;2.72;;
14584;SDS011;7379;51.506;11.876;2023-07-16T04:37:28;2.90;;;2.42;;
14584;SDS011;7379;51.506;11.876;2023-07-16T04:39:56;3.08;;;2.42;;
14584;SDS011;7379;51.506;11.876;2023-07-16T04:42:23;2.70;;;2.50;;
14584;SDS011;7379;51.506;11.876;2023-07-16T04:44:50;2.88;;;2.45;;
14584;SDS011;7379;51.506;11.876;2023-07-16T04:47:16;3.55;;;2.75;;
14584;SDS011;7379;51.506;11.876;2023-07-16T04:49:43;2.88;;;2.42;;
14584;SDS011;7379;51.506;11.876;2023-07-16T04:52:10;4.63;;;2.53;;
14584;SDS011;7379;51.506;11.876;2023-07-16T04:54:37;3.08;;;2.58;;
14584;SDS011;7379;51.506;11.876;2023-07-16T04:57:06;4.05;;;2.40;;
14584;SDS011;7379;51.506;11.876;2023-07-16T04:59:33;3.50;;;2.50;;
14584;SDS011;7379;51.506;11.876;2023-07-16T05:02:01;3.30;;;2.60;;
14584;SDS011;7379;51.506;11.876;2023-07-16T05:04:28;2.78;;;2.50;;
14584;SDS011;7379;51.506;11.876;2023-07-16T05:06:55;4.30;;;2.55;;
14584;SDS011;7379;51.506;11.876;2023-07-16T05:09:21;2.67;;;2.40;;
14584;SDS011;7379;51.506;11.876;2023-07-16T05:11:48;3.22;;;2.60;;
14584;SDS011;7379;51.506;11.876;2023-07-16T05:14:16;2.60;;;2.40;;
14584;SDS011;7379;51.506;11.876;2023-07-16T05:16:43;2.78;;;2.42;;
14584;SDS011;7379;51.506;11.876;2023-07-16T05:19:10;3.20;;;2.30;;
14584;SDS011;7379;51.506;11.876;2023-07-16T05:21:37;2.53;;;2.33;;
14584;SDS011;7379;51.506;11.876;2023-07-16T05:24:04;2.55;;;2.35;;
14584;SDS011;7379;51.506;11.876;2023-07-16T05:26:31;2.75;;;2.20;;
14584;SDS011;7379;51.506;11.876;2023-07-16T05:28:58;3.08;;;2.30;;
14584;SDS011;7379;51.506;11.876;2023-07-16T05:31:26;3.53;;;2.40;;
14584;SDS011;7379;51.506;11.876;2023-07-16T05:33:53;4.05;;;2.40;;
14584;SDS011;7379;51.506;11.876;2023-07-16T05:36:19;4.10;;;2.63;;
14584;SDS011;7379;51.506;11.876;2023-07-16T05:38:46;2.70;;;2.40;;
14584;SDS011;7379;51.506;11.876;2023-07-16T05:41:13;4.43;;;2.72;;
14584;SDS011;7379;51.506;11.876;2023-07-16T05:43:39;2.88;;;2.25;;
14584;SDS011;7379;51.506;11.876;2023-07-16T05:46:06;3.47;;;2.60;;
14584;SDS011;7379;51.506;11.876;2023-07-16T05:48:34;4.03;;;2.33;;
14584;SDS011;7379;51.506;11.876;2023-07-16T05:51:01;2.90;;;2.60;;
14584;SDS011;7379;51.506;11.876;2023-07-16T05:53:28;2.58;;;2.30;;
14584;SDS011;7379;51.506;11.876;2023-07-16T05:55:54;2.50;;;2.30;;
14584;SDS011;7379;51.506;11.876;2023-07-16T05:58:21;2.85;;;2.45;;
14584;SDS011;7379;51.506;11.876;2023-07-16T06:00:48;2.72;;;2.25;;
14584;SDS011;7379;51.506;11.876;2023-07-16T06:03:14;2.95;;;2.33;;
14584;SDS011;7379;51.506;11.876;2023-07-16T06:05:45;2.75;;;2.08;;
14584;SDS011;7379;51.506;11.876;2023-07-16T06:08:11;2.60;;;2.20;;
14584;SDS011;7379;51.506;11.876;2023-07-16T06:10:38;2.97;;;2.40;;
14584;SDS011;7379;51.506;11.876;2023-07-16T06:13:05;2.97;;;2.22;;
14584;SDS011;7379;51.506;11.876;2023-07-16T06:15:32;3.63;;;2.40;;
14584;SDS011;7379;51.506;11.876;2023-07-16T06:17:58;3.10;;;2.20;;
14584;SDS011;7379;51.506;11.876;2023-07-16T06:20:25;2.67;;;2.30;;
14584;SDS011;7379;51.506;11.876;2023-07-16T06:22:53;3.25;;;2.50;;
14584;SDS011;7379;51.506;11.876;2023-07-16T06:25:20;3.00;;;2.10;;
14584;SDS011;7379;51.506;11.876;2023-07-16T06:27:47;3.75;;;1.95;;
14584;SDS011;7379;51.506;11.876;2023-07-16T06:30:13;4.18;;;2.10;;
14584;SDS011;7379;51.506;11.876;2023-07-16T06:32:40;2.88;;;2.45;;
14584;SDS011;7379;51.506;11.876;2023-07-16T06:35:07;2.85;;;2.30;;
14584;SDS011;7379;51.506;11.876;2023-07-16T06:37:34;2.72;;;2.05;;
14584;SDS011;7379;51.506;11.876;2023-07-16T06:40:03;2.15;;;1.92;;
14584;SDS011;7379;51.506;11.876;2023-07-16T06:42:30;3.05;;;2.30;;
14584;SDS011;7379;51.506;11.876;2023-07-16T06:44:57;2.58;;;2.13;;
14584;SDS011;7379;51.506;11.876;2023-07-16T06:47:24;3.30;;;2.25;;
14584;SDS011;7379;51.506;11.876;2023-07-16T06:49:51;2.40;;;2.20;;
14584;SDS011;7379;51.506;11.876;2023-07-16T06:52:18;3.35;;;2.17;;
14584;SDS011;7379;51.506;11.876;2023-07-16T06:54:46;3.30;;;2.28;;
14584;SDS011;7379;51.506;11.876;2023-07-16T06:57:14;3.17;;;2.33;;
14584;SDS011;7379;51.506;11.876;2023-07-16T06:59:40;3.60;;;2.10;;
14584;SDS011;7379;51.506;11.876;2023-07-16T07:02:07;2.63;;;2.20;;
14584;SDS011;7379;51.506;11.876;2023-07-16T07:04:34;2.97;;;2.03;;
14584;SDS011;7379;51.506;11.876;2023-07-16T07:07:01;4.13;;;2.25;;
14584;SDS011;7379;51.506;11.876;2023-07-16T07:09:27;2.60;;;2.10;;
14584;SDS011;7379;51.506;11.876;2023-07-16T07:11:54;2.70;;;2.08;;
14584;SDS011;7379;51.506;11.876;2023-07-16T07:14:22;3.47;;;2.08;;
14584;SDS011;7379;51.506;11.876;2023-07-16T07:16:49;2.58;;;2.10;;
14584;SDS011;7379;51.506;11.876;2023-07-16T07:19:16;2.65;;;2.20;;
14584;SDS011;7379;51.506;11.876;2023-07-16T07:21:42;4.55;;;2.20;;
14584;SDS011;7379;51.506;11.876;2023-07-16T07:24:09;3.75;;;2.08;;
14584;SDS011;7379;51.506;11.876;2023-07-16T07:26:36;4.03;;;2.22;;
14584;SDS011;7379;51.506;11.876;2023-07-16T07:29:02;3.25;;;2.08;;
14584;SDS011;7379;51.506;11.876;2023-07-16T07:31:30;3.25;;;2.20;;
14584;SDS011;7379;51.506;11.876;2023-07-16T07:33:57;2.53;;;2.20;;
14584;SDS011;7379;51.506;11.876;2023-07-16T07:36:24;5.88;;;2.38;;
14584;SDS011;7379;51.506;11.876;2023-07-16T07:38:51;3.17;;;2.20;;
14584;SDS011;7379;51.506;11.876;2023-07-16T07:41:18;3.58;;;2.28;;
14584;SDS011;7379;51.506;11.876;2023-07-16T07:43:44;3.33;;;2.20;;
14584;SDS011;7379;51.506;11.876;2023-07-16T07:46:11;2.40;;;2.05;;
14584;SDS011;7379;51.506;11.876;2023-07-16T07:48:39;3.38;;;2.08;;
14584;SDS011;7379;51.506;11.876;2023-07-16T07:51:06;3.35;;;2.30;;
14584;SDS011;7379;51.506;11.876;2023-07-16T07:53:33;3.28;;;2.40;;
14584;SDS011;7379;51.506;11.876;2023-07-16T07:56:00;4.45;;;2.20;;
14584;SDS011;7379;51.506;11.876;2023-07-16T07:58:26;4.60;;;2.40;;
14584;SDS011;7379;51.506;11.876;2023-07-16T08:00:53;2.70;;;2.15;;
14584;SDS011;7379;51.506;11.876;2023-07-16T08:03:20;4.32;;;2.03;;
14584;SDS011;7379;51.506;11.876;2023-07-16T08:05:49;4.10;;;2.20;;
14584;SDS011;7379;51.506;11.876;2023-07-16T08:08:16;3.70;;;2.17;;
14584;SDS011;7379;51.506;11.876;2023-07-16T08:10:42;5.10;;;2.13;;
14584;SDS011;7379;51.506;11.876;2023-07-16T08:13:11;2.67;;;2.10;;
14584;SDS011;7379;51.506;11.876;2023-07-16T08:15:37;6.68;;;2.08;;
14584;SDS011;7379;51.506;11.876;2023-07-16T08:18:04;4.40;;;2.20;;
14584;SDS011;7379;51.506;11.876;2023-07-16T08:20:31;4.78;;;2.17;;
14584;SDS011;7379;51.506;11.876;2023-07-16T08:22:59;2.90;;;2.03;;
14584;SDS011;7379;51.506;11.876;2023-07-16T08:25:26;4.53;;;2.08;;
14584;SDS011;7379;51.506;11.876;2023-07-16T08:27:53;4.13;;;2.35;;
14584;SDS011;7379;51.506;11.876;2023-07-16T08:30:20;3.13;;;2.00;;
14584;SDS011;7379;51.506;11.876;2023-07-16T08:32:47;3.20;;;2.35;;
14584;SDS011;7379;51.506;11.876;2023-07-16T08:35:15;5.03;;;2.20;;
14584;SDS011;7379;51.506;11.876;2023-07-16T08:37:42;4.53;;;2.33;;
14584;SDS011;7379;51.506;11.876;2023-07-16T08:40:11;2.85;;;2.00;;
14584;SDS011;7379;51.506;11.876;2023-07-16T08:42:38;4.10;;;2.20;;
14584;SDS011;7379;51.506;11.876;2023-07-16T08:45:06;2.70;;;2.10;;
14584;SDS011;7379;51.506;11.876;2023-07-16T08:47:35;2.85;;;2.10;;
14584;SDS011;7379;51.506;11.876;2023-07-16T08:50:02;3.25;;;2.15;;
14584;SDS011;7379;51.506;11.876;2023-07-16T08:52:29;4.75;;;2.20;;
14584;SDS011;7379;51.506;11.876;2023-07-16T08:54:56;4.07;;;2.00;;
14584;SDS011;7379;51.506;11.876;2023-07-16T08:57:24;3.83;;;2.10;;
14584;SDS011;7379;51.506;11.876;2023-07-16T08:59:52;4.05;;;2.10;;
14584;SDS011;7379;51.506;11.876;2023-07-16T09:02:21;4.28;;;1.90;;
14584;SDS011;7379;51.506;11.876;2023-07-16T09:04:48;3.47;;;2.20;;
14584;SDS011;7379;51.506;11.876;2023-07-16T09:07:16;3.83;;;2.30;;
14584;SDS011;7379;51.506;11.876;2023-07-16T09:09:42;2.95;;;2.20;;
14584;SDS011;7379;51.506;11.876;2023-07-16T09:12:11;3.72;;;1.95;;
14584;SDS011;7379;51.506;11.876;2023-07-16T09:14:39;3.17;;;2.10;;
14584;SDS011;7379;51.506;11.876;2023-07-16T09:17:06;3.10;;;2.10;;
14584;SDS011;7379;51.506;11.876;2023-07-16T09:19:33;3.75;;;2.10;;
14584;SDS011;7379;51.506;11.876;2023-07-16T09:22:00;3.15;;;2.03;;
14584;SDS011;7379;51.506;11.876;2023-07-16T09:24:26;3.60;;;2.10;;
14584;SDS011;7379;51.506;11.876;2023-07-16T09:26:55;4.18;;;2.08;;
14584;SDS011;7379;51.506;11.876;2023-07-16T09:29:22;3.10;;;1.98;;
14584;SDS011;7379;51.506;11.876;2023-07-16T09:31:56;3.25;;;1.98;;
14584;SDS011;7379;51.506;11.876;2023-07-16T09:34:26;4.78;;;2.20;;
14584;SDS011;7379;51.506;11.876;2023-07-16T09:36:53;4.28;;;2.03;;
14584;SDS011;7379;51.506;11.876;2023-07-16T09:39:20;2.35;;;1.85;;
14584;SDS011;7379;51.506;11.876;2023-07-16T09:41:48;2.40;;;1.92;;
14584;SDS011;7379;51.506;11.876;2023-07-16T09:44:16;3.03;;;2.10;;
14584;SDS011;7379;51.506;11.876;2023-07-16T09:46:43;3.70;;;2.15;;
14584;SDS011;7379;51.506;11.876;2023-07-16T09:49:13;2.55;;;1.80;;
14584;SDS011;7379;51.506;11.876;2023-07-16T09:51:41;2.75;;;2.05;;
14584;SDS011;7379;51.506;11.876;2023-07-16T09:54:09;3.22;;;2.20;;
14584;SDS011;7379;51.506;11.876;2023-07-16T09:56:40;4.60;;;2.22;;
14584;SDS011;7379;51.506;11.876;2023-07-16T09:59:11;3.03;;;2.05;;
14584;SDS011;7379;51.506;11.876;2023-07-16T10:01:41;3.22;;;2.00;;
14584;SDS011;7379;51.506;11.876;2023-07-16T10:04:14;4.22;;;2.20;;
14584;SDS011;7379;51.506;11.876;2023-07-16T10:06:48;2.80;;;2.13;;
14584;SDS011;7379;51.506;11.876;2023-07-16T10:09:31;4.22;;;2.00;;
14584;SDS011;7379;51.506;11.876;2023-07-16T10:12:06;3.92;;;2.05;;
14584;SDS011;7379;51.506;11.876;2023-07-16T10:14:38;3.35;;;2.10;;
14584;SDS011;7379;51.506;11.876;2023-07-16T10:17:05;3.40;;;2.17;;
14584;SDS011;7379;51.506;11.876;2023-07-16T10:19:35;2.70;;;2.00;;
14584;SDS011;7379;51.506;11.876;2023-07-16T10:22:13;4.95;;;2.00;;
14584;SDS011;7379;51.506;11.876;2023-07-16T10:24:40;3.22;;;1.90;;
14584;SDS011;7379;51.506;11.876;2023-07-16T10:27:07;4.53;;;2.20;;
14584;SDS011;7379;51.506;11.876;2023-07-16T10:29:33;4.57;;;2.10;;
14584;SDS011;7379;51.506;11.876;2023-07-16T10:32:01;4.10;;;2.20;;
14584;SDS011;7379;51.506;11.876;2023-07-16T10:34:29;3.50;;;2.30;;
14584;SDS011;7379;51.506;11.876;2023-07-16T10:36:57;2.85;;;2.20;;
14584;SDS011;7379;51.506;11.876;2023-07-16T10:39:24;2.95;;;1.90;;
14584;SDS011;7379;51.506;11.876;2023-07-16T10:41:50;2.85;;;1.90;;
14584;SDS011;7379;51.506;11.876;2023-07-16T10:44:17;3.83;;;2.08;;
14584;SDS011;7379;51.506;11.876;2023-07-16T10:46:46;4.15;;;2.00;;
14584;SDS011;7379;51.506;11.876;2023-07-16T10:49:13;3.80;;;1.98;;
14584;SDS011;7379;51.506;11.876;2023-07-16T10:51:40;4.40;;;2.10;;
14584;SDS011;7379;51.506;11.876;2023-07-16T10:54:08;3.67;;;2.22;;
14584;SDS011;7379;51.506;11.876;2023-07-16T10:56:35;6.18;;;2.00;;
14584;SDS011;7379;51.506;11.876;2023-07-16T10:59:02;3.40;;;2.20;;
14584;SDS011;7379;51.506;11.876;2023-07-16T11:01:32;4.22;;;2.50;;
14584;SDS011;7379;51.506;11.876;2023-07-16T11:04:00;3.17;;;2.20;;
14584;SDS011;7379;51.506;11.876;2023-07-16T11:06:27;3.05;;;2.30;;
14584;SDS011;7379;51.506;11.876;2023-07-16T11:08:54;3.05;;;2.00;;
14584;SDS011;7379;51.506;11.876;2023-07-16T11:11:31;2.63;;;2.10;;
14584;SDS011;7379;51.506;11.876;2023-07-16T11:13:57;3.10;;;2.10;;
14584;SDS011;7379;51.506;11.876;2023-07-16T11:16:24;3.30;;;2.30;;
14584;SDS011;7379;51.506;11.876;2023-07-16T11:18:51;3.58;;;2.00;;
14584;SDS011;7379;51.506;11.876;2023-07-16T11:21:18;3.60;;;2.03;;
14584;SDS011;7379;51.506;11.876;2023-07-16T11:23:45;3.53;;;2.10;;
14584;SDS011;7379;51.506;11.876;2023-07-16T11:26:14;4.05;;;2.00;;
14584;SDS011;7379;51.506;11.876;2023-07-16T11:28:42;4.63;;;2.08;;
14584;SDS011;7379;51.506;11.876;2023-07-16T11:31:13;7.43;;;2.33;;
14584;SDS011;7379;51.506;11.876;2023-07-16T11:33:41;2.88;;;1.88;;
14584;SDS011;7379;51.506;11.876;2023-07-16T11:36:09;2.95;;;2.30;;
14584;SDS011;7379;51.506;11.876;2023-07-16T11:38:36;4.70;;;2.10;;
14584;SDS011;7379;51.506;11.876;2023-07-16T11:41:03;6.03;;;2.45;;
14584;SDS011;7379;51.506;11.876;2023-07-16T11:43:33;3.05;;;2.10;;
14584;SDS011;7379;51.506;11.876;2023-07-16T11:46:02;3.15;;;2.10;;
14584;SDS011;7379;51.506;11.876;2023-07-16T11:48:29;4.13;;;2.28;;
14584;SDS011;7379;51.506;11.876;2023-07-16T11:50:56;2.40;;;2.13;;
14584;SDS011;7379;51.506;11.876;2023-07-16T11:53:23;3.38;;;2.20;;
14584;SDS011;7379;51.506;11.876;2023-07-16T11:55:49;3.13;;;2.10;;
14584;SDS011;7379;51.506;11.876;2023-07-16T11:58:16;2.85;;;2.30;;
14584;SDS011;7379;51.506;11.876;2023-07-16T12:00:43;3.63;;;2.10;;
14584;SDS011;7379;51.506;11.876;2023-07-16T12:03:11;4.78;;;2.20;;
14584;SDS011;7379;51.506;11.876;2023-07-16T12:05:38;3.50;;;2.33;;
14584;SDS011;7379;51.506;11.876;2023-07-16T12:08:04;3.58;;;2.17;;
14584;SDS011;7379;51.506;11.876;2023-07-16T12:10:34;3.72;;;2.38;;
14584;SDS011;7379;51.506;11.876;2023-07-16T12:13:01;2.67;;;2.10;;
14584;SDS011;7379;51.506;11.876;2023-07-16T12:15:27;3.00;;;2.50;;
14584;SDS011;7379;51.506;11.876;2023-07-16T12:17:54;6.03;;;2.40;;
14584;SDS011;7379;51.506;11.876;2023-07-16T12:20:22;3.63;;;2.47;;
14584;SDS011;7379;51.506;11.876;2023-07-16T12:22:49;3.30;;;2.45;;
14584;SDS011;7379;51.506;11.876;2023-07-16T12:25:16;4.22;;;2.28;;
14584;SDS011;7379;51.506;11.876;2023-07-16T12:27:44;3.50;;;2.35;;
14584;SDS011;7379;51.506;11.876;2023-07-16T12:30:11;6.30;;;2.47;;
14584;SDS011;7379;51.506;11.876;2023-07-16T12:32:39;3.20;;;1.95;;
14584;SDS011;7379;51.506;11.876;2023-07-16T12:35:06;3.47;;;2.33;;
14584;SDS011;7379;51.506;11.876;2023-07-16T12:37:34;5.60;;;2.55;;
14584;SDS011;7379;51.506;11.876;2023-07-16T12:40:01;4.97;;;2.22;;
14584;SDS011;7379;51.506;11.876;2023-07-16T12:42:28;3.30;;;2.47;;
14584;SDS011;7379;51.506;11.876;2023-07-16T12:44:55;3.10;;;2.28;;
14584;SDS011;7379;51.506;11.876;2023-07-16T12:47:21;3.00;;;2.33;;
14584;SDS011;7379;51.506;11.876;2023-07-16T12:49:48;3.55;;;2.40;;
14584;SDS011;7379;51.506;11.876;2023-07-16T12:52:15;4.55;;;2.50;;
14584;SDS011;7379;51.506;11.876;2023-07-16T12:54:43;3.53;;;2.28;;
14584;SDS011;7379;51.506;11.876;2023-07-16T12:57:10;4.05;;;2.38;;
14584;SDS011;7379;51.506;11.876;2023-07-16T12:59:37;3.30;;;2.53;;
14584;SDS011;7379;51.506;11.876;2023-07-16T13:02:04;3.03;;;2.30;;
14584;SDS011;7379;51.506;11.876;2023-07-16T13:04:31;3.17;;;2.30;;
14584;SDS011;7379;51.506;11.876;2023-07-16T13:06:58;3.72;;;2.25;;
14584;SDS011;7379;51.506;11.876;2023-07-16T13:09:24;3.55;;;2.30;;
14584;SDS011;7379;51.506;11.876;2023-07-16T13:11:52;3.33;;;2.33;;
14584;SDS011;7379;51.506;11.876;2023-07-16T13:14:19;5.07;;;2.45;;
14584;SDS011;7379;51.506;11.876;2023-07-16T13:16:46;3.40;;;2.45;;
14584;SDS011;7379;51.506;11.876;2023-07-16T13:19:13;3.60;;;2.40;;
14584;SDS011;7379;51.506;11.876;2023-07-16T13:21:39;4.78;;;2.45;;
14584;SDS011;7379;51.506;11.876;2023-07-16T13:24:06;4.75;;;2.35;;
14584;SDS011;7379;51.506;11.876;2023-07-16T13:26:33;3.53;;;2.42;;
14584;SDS011;7379;51.506;11.876;2023-07-16T13:29:01;3.17;;;2.40;;
14584;SDS011;7379;51.506;11.876;2023-07-16T13:31:28;4.00;;;2.40;;
14584;SDS011;7379;51.506;11.876;2023-07-16T13:33:55;3.08;;;2.40;;
14584;SDS011;7379;51.506;11.876;2023-07-16T13:36:21;4.22;;;2.60;;
14584;SDS011;7379;51.506;11.876;2023-07-16T13:38:48;3.90;;;2.50;;
14584;SDS011;7379;51.506;11.876;2023-07-16T13:41:15;3.60;;;2.60;;
14584;SDS011;7379;51.506;11.876;2023-07-16T13:43:41;3.72;;;2.53;;
14584;SDS011;7379;51.506;11.876;2023-07-16T13:46:09;4.70;;;2.67;;
14584;SDS011;7379;51.506;11.876;2023-07-16T13:48:36;4.38;;;2.50;;
14584;SDS011;7379;51.506;11.876;2023-07-16T13:51:04;4.75;;;2.65;;
14584;SDS011;7379;51.506;11.876;2023-07-16T13:53:31;4.20;;;2.42;;
14584;SDS011;7379;51.506;11.876;2023-07-16T13:55:58;3.75;;;2.72;;
14584;SDS011;7379;51.506;11.876;2023-07-16T13:58:24;3.70;;;2.53;;
14584;SDS011;7379;51.506;11.876;2023-07-16T14:00:51;5.00;;;2.60;;
14584;SDS011;7379;51.506;11.876;2023-07-16T14:03:19;3.40;;;2.65;;
14584;SDS011;7379;51.506;11.876;2023-07-16T14:05:46;5.82;;;2.60;;
14584;SDS011;7379;51.506;11.876;2023-07-16T14:08:12;5.70;;;2.60;;
14584;SDS011;7379;51.506;11.876;2023-07-16T14:10:39;3.50;;;2.45;;
14584;SDS011;7379;51.506;11.876;2023-07-16T14:13:06;4.40;;;2.70;;
14584;SDS011;7379;51.506;11.876;2023-07-16T14:15:32;3.42;;;2.65;;
14584;SDS011;7379;51.506;11.876;2023-07-16T14:17:59;4.28;;;2.83;;
14584;SDS011;7379;51.506;11.876;2023-07-16T14:20:27;6.20;;;3.00;;
14584;SDS011;7379;51.506;11.876;2023-07-16T14:22:54;4.78;;;2.63;;
14584;SDS011;7379;51.506;11.876;2023-07-16T14:25:21;4.18;;;2.58;;
14584;SDS011;7379;51.506;11.876;2023-07-16T14:27:48;4.40;;;2.85;;
14584;SDS011;7379;51.506;11.876;2023-07-16T14:30:15;4.90;;;2.97;;
14584;SDS011;7379;51.506;11.876;2023-07-16T14:32:42;4.80;;;2.85;;
14584;SDS011;7379;51.506;11.876;2023-07-16T14:35:09;3.92;;;2.90;;
14584;SDS011;7379;51.506;11.876;2023-07-16T14:37:38;3.70;;;2.65;;
14584;SDS011;7379;51.506;11.876;2023-07-16T14:40:05;3.50;;;2.63;;
14584;SDS011;7379;51.506;11.876;2023-07-16T14:42:33;3.75;;;2.72;;
14584;SDS011;7379;51.506;11.876;2023-07-16T14:45:00;4.35;;;2.92;;
14584;SDS011;7379;51.506;11.876;2023-07-16T14:47:30;3.30;;;2.60;;
14584;SDS011;7379;51.506;11.876;2023-07-16T14:49:57;3.55;;;2.65;;
14584;SDS011;7379;51.506;11.876;2023-07-16T14:52:24;3.35;;;2.60;;